sensor_id;sensor_type;location;lat;lon;timestamp;pressure;altitude;pressure_sealevel;temperature
65738;BMP280;52478;51.844;6.582;2023-03-31T00:01:40;100158.00;;;22.08
65738;BMP280;52478;51.844;6.582;2023-03-31T00:04:08;100155.22;;;22.08
65738;BMP280;52478;51.844;6.582;2023-03-31T00:06:38;100139.03;;;22.07
65738;BMP280;52478;51.844;6.582;2023-03-31T00:09:08;100130.13;;;22.08
65738;BMP280;52478;51.844;6.582;2023-03-31T00:11:36;100125.81;;;22.07
65738;BMP280;52478;51.844;6.582;2023-03-31T00:14:03;100121.53;;;22.06
65738;BMP280;52478;51.844;6.582;2023-03-31T00:16:32;100113.19;;;22.06
65738;BMP280;52478;51.844;6.582;2023-03-31T00:18:59;100115.25;;;22.06
65738;BMP280;52478;51.844;6.582;2023-03-31T00:21:27;100107.44;;;22.04
65738;BMP280;52478;51.844;6.582;2023-03-31T00:23:59;100104.81;;;22.06
65738;BMP280;52478;51.844;6.582;2023-03-31T00:26:26;100115.25;;;22.06
65738;BMP280;52478;51.844;6.582;2023-03-31T00:28:53;100104.81;;;22.06
65738;BMP280;52478;51.844;6.582;2023-03-31T00:31:20;100101.88;;;22.04
65738;BMP280;52478;51.844;6.582;2023-03-31T00:33:48;100087.94;;;22.04
65738;BMP280;52478;51.844;6.582;2023-03-31T00:36:16;100074.00;;;22.04
65738;BMP280;52478;51.844;6.582;2023-03-31T00:38:46;100073.22;;;22.04
65738;BMP280;52478;51.844;6.582;2023-03-31T00:41:12;100061.34;;;22.03
65738;BMP280;52478;51.844;6.582;2023-03-31T00:43:39;100069.72;;;22.03
65738;BMP280;52478;51.844;6.582;2023-03-31T00:46:12;100059.81;;;22.02
65738;BMP280;52478;51.844;6.582;2023-03-31T00:48:46;100058.34;;;22.01
65738;BMP280;52478;51.844;6.582;2023-03-31T00:51:14;100047.94;;;22.02
65738;BMP280;52478;51.844;6.582;2023-03-31T00:53:41;100047.94;;;22.02
65738;BMP280;52478;51.844;6.582;2023-03-31T00:56:11;100045.16;;;22.02
65738;BMP280;52478;51.844;6.582;2023-03-31T00:58:40;100041.63;;;22.01
65738;BMP280;52478;51.844;6.582;2023-03-31T01:01:10;100032.31;;;21.99
65738;BMP280;52478;51.844;6.582;2023-03-31T01:03:40;100033.81;;;22.00
65738;BMP280;52478;51.844;6.582;2023-03-31T01:06:12;100039.38;;;22.00
65738;BMP280;52478;51.844;6.582;2023-03-31T01:08:40;100035.31;;;22.01
65738;BMP280;52478;51.844;6.582;2023-03-31T01:11:09;100029.00;;;22.00
65738;BMP280;52478;51.844;6.582;2023-03-31T01:13:38;100029.00;;;22.00
65738;BMP280;52478;51.844;6.582;2023-03-31T01:16:06;100017.84;;;22.00
65738;BMP280;52478;51.844;6.582;2023-03-31T01:18:32;100017.84;;;22.00
65738;BMP280;52478;51.844;6.582;2023-03-31T01:24:43;99999.66;;;21.99
65738;BMP280;52478;51.844;6.582;2023-03-31T01:30:36;99989.75;;;21.98
65738;BMP280;52478;51.844;6.582;2023-03-31T01:36:32;99986.97;;;21.98
65738;BMP280;52478;51.844;6.582;2023-03-31T01:39:22;99979.91;;;21.97
65738;BMP280;52478;51.844;6.582;2023-03-31T01:42:02;99977.13;;;21.97
65738;BMP280;52478;51.844;6.582;2023-03-31T01:44:39;99959.09;;;21.98
65738;BMP280;52478;51.844;6.582;2023-03-31T01:47:13;99950.56;;;21.96
65738;BMP280;52478;51.844;6.582;2023-03-31T01:49:45;99939.44;;;21.96
65738;BMP280;52478;51.844;6.582;2023-03-31T01:52:19;99940.91;;;21.97
65738;BMP280;52478;51.844;6.582;2023-03-31T01:54:53;99933.84;;;21.96
65738;BMP280;52478;51.844;6.582;2023-03-31T01:57:27;99930.31;;;21.96
65738;BMP280;52478;51.844;6.582;2023-03-31T02:00:01;99910.81;;;21.96
65738;BMP280;52478;51.844;6.582;2023-03-31T02:02:31;99915.81;;;21.97
65738;BMP280;52478;51.844;6.582;2023-03-31T02:05:03;99897.44;;;21.94
65738;BMP280;52478;51.844;6.582;2023-03-31T02:07:34;99889.28;;;21.96
65738;BMP280;52478;51.844;6.582;2023-03-31T02:10:05;99883.72;;;21.96
65738;BMP280;52478;51.844;6.582;2023-03-31T02:12:35;99880.91;;;21.96
65738;BMP280;52478;51.844;6.582;2023-03-31T02:15:06;99885.16;;;21.97
65738;BMP280;52478;51.844;6.582;2023-03-31T02:17:34;99871.06;;;21.95
65738;BMP280;52478;51.844;6.582;2023-03-31T02:20:06;99866.22;;;21.96
65738;BMP280;52478;51.844;6.582;2023-03-31T02:22:38;99860.66;;;21.96
65738;BMP280;52478;51.844;6.582;2023-03-31T02:25:08;99852.28;;;21.96
65738;BMP280;52478;51.844;6.582;2023-03-31T02:27:39;99855.84;;;21.96
65738;BMP280;52478;51.844;6.582;2023-03-31T02:30:08;99837.78;;;21.97
65738;BMP280;52478;51.844;6.582;2023-03-31T02:32:37;99844.50;;;21.94
65738;BMP280;52478;51.844;6.582;2023-03-31T02:35:05;99837.63;;;21.95
65738;BMP280;52478;51.844;6.582;2023-03-31T02:37:33;99832.78;;;21.96
65738;BMP280;52478;51.844;6.582;2023-03-31T02:40:02;99833.53;;;21.96
65738;BMP280;52478;51.844;6.582;2023-03-31T02:42:33;99821.06;;;21.97
65738;BMP280;52478;51.844;6.582;2023-03-31T02:45:02;99817.59;;;21.97
65738;BMP280;52478;51.844;6.582;2023-03-31T02:47:29;99808.47;;;21.96
65738;BMP280;52478;51.844;6.582;2023-03-31T02:49:58;99799.34;;;21.96
65738;BMP280;52478;51.844;6.582;2023-03-31T02:52:38;99786.19;;;21.96
65738;BMP280;52478;51.844;6.582;2023-03-31T02:55:34;99784.16;;;21.97
65738;BMP280;52478;51.844;6.582;2023-03-31T02:58:25;99773.72;;;21.97
65738;BMP280;52478;51.844;6.582;2023-03-31T03:01:07;99756.28;;;21.97
65738;BMP280;52478;51.844;6.582;2023-03-31T03:03:38;99751.41;;;21.97
65738;BMP280;52478;51.844;6.582;2023-03-31T03:06:17;99751.41;;;21.97
65738;BMP280;52478;51.844;6.582;2023-03-31T03:09:04;99738.81;;;21.96
65738;BMP280;52478;51.844;6.582;2023-03-31T03:11:38;99725.03;;;21.98
65738;BMP280;52478;51.844;6.582;2023-03-31T03:14:15;99716.53;;;21.96
65738;BMP280;52478;51.844;6.582;2023-03-31T03:16:47;99712.41;;;21.97
65738;BMP280;52478;51.844;6.582;2023-03-31T03:19:18;99712.41;;;21.97
65738;BMP280;52478;51.844;6.582;2023-03-31T03:21:45;99715.19;;;21.97
65738;BMP280;52478;51.844;6.582;2023-03-31T03:24:12;99720.78;;;21.97
65738;BMP280;52478;51.844;6.582;2023-03-31T03:26:39;99720.78;;;21.97
65738;BMP280;52478;51.844;6.582;2023-03-31T03:29:06;99717.97;;;21.97
65738;BMP280;52478;51.844;6.582;2023-03-31T03:31:33;99701.28;;;21.97
65738;BMP280;52478;51.844;6.582;2023-03-31T03:34:00;99705.38;;;21.96
65738;BMP280;52478;51.844;6.582;2023-03-31T03:36:27;99695.69;;;21.97
65738;BMP280;52478;51.844;6.582;2023-03-31T03:38:53;99690.13;;;21.97
65738;BMP280;52478;51.844;6.582;2023-03-31T03:41:20;99690.13;;;21.97
65738;BMP280;52478;51.844;6.582;2023-03-31T03:43:46;99674.72;;;21.96
65738;BMP280;52478;51.844;6.582;2023-03-31T03:46:13;99665.03;;;21.97
65738;BMP280;52478;51.844;6.582;2023-03-31T03:48:39;99659.47;;;21.97
65738;BMP280;52478;51.844;6.582;2023-03-31T03:51:07;99648.34;;;21.97
65738;BMP280;52478;51.844;6.582;2023-03-31T03:53:34;99645.53;;;21.97
65738;BMP280;52478;51.844;6.582;2023-03-31T03:56:00;99628.81;;;21.97
65738;BMP280;52478;51.844;6.582;2023-03-31T03:58:27;99616.22;;;21.96
65738;BMP280;52478;51.844;6.582;2023-03-31T04:00:54;99622.56;;;21.97
65738;BMP280;52478;51.844;6.582;2023-03-31T04:03:21;99624.75;;;21.98
65738;BMP280;52478;51.844;6.582;2023-03-31T04:05:48;99627.38;;;21.96
65738;BMP280;52478;51.844;6.582;2023-03-31T04:08:16;99616.22;;;21.96
65738;BMP280;52478;51.844;6.582;2023-03-31T04:10:43;99595.97;;;21.96
65738;BMP280;52478;51.844;6.582;2023-03-31T04:13:11;99593.94;;;21.96
65738;BMP280;52478;51.844;6.582;2023-03-31T04:15:37;99595.22;;;21.95
65738;BMP280;52478;51.844;6.582;2023-03-31T04:18:04;99588.38;;;21.96
65738;BMP280;52478;51.844;6.582;2023-03-31T04:20:30;99585.56;;;21.96
65738;BMP280;52478;51.844;6.582;2023-03-31T04:22:57;99582.78;;;21.96
65738;BMP280;52478;51.844;6.582;2023-03-31T04:25:24;99588.38;;;21.96
65738;BMP280;52478;51.844;6.582;2023-03-31T04:27:54;99588.38;;;21.96
65738;BMP280;52478;51.844;6.582;2023-03-31T04:30:22;99587.59;;;21.96
65738;BMP280;52478;51.844;6.582;2023-03-31T04:32:50;99577.22;;;21.96
65738;BMP280;52478;51.844;6.582;2023-03-31T04:35:17;99572.94;;;21.95
65738;BMP280;52478;51.844;6.582;2023-03-31T04:37:45;99570.16;;;21.95
65738;BMP280;52478;51.844;6.582;2023-03-31T04:40:12;99563.09;;;21.94
65738;BMP280;52478;51.844;6.582;2023-03-31T04:42:39;99546.38;;;21.94
65738;BMP280;52478;51.844;6.582;2023-03-31T04:45:07;99536.72;;;21.95
65738;BMP280;52478;51.844;6.582;2023-03-31T04:47:33;99531.69;;;21.94
65738;BMP280;52478;51.844;6.582;2023-03-31T04:50:00;99530.41;;;21.95
65738;BMP280;52478;51.844;6.582;2023-03-31T04:52:26;99517.94;;;21.96
65738;BMP280;52478;51.844;6.582;2023-03-31T04:54:53;99520.00;;;21.95
65738;BMP280;52478;51.844;6.582;2023-03-31T04:57:19;99508.88;;;21.95
65738;BMP280;52478;51.844;6.582;2023-03-31T04:59:47;99497.72;;;21.95
65738;BMP280;52478;51.844;6.582;2023-03-31T05:02:13;99486.59;;;21.95
65738;BMP280;52478;51.844;6.582;2023-03-31T05:04:47;99490.66;;;21.94
65738;BMP280;52478;51.844;6.582;2023-03-31T05:07:13;99485.09;;;21.94
65738;BMP280;52478;51.844;6.582;2023-03-31T05:09:40;99473.94;;;21.94
65738;BMP280;52478;51.844;6.582;2023-03-31T05:12:06;99462.06;;;21.94
65738;BMP280;52478;51.844;6.582;2023-03-31T05:14:33;99473.94;;;21.94
65738;BMP280;52478;51.844;6.582;2023-03-31T05:17:01;99454.44;;;21.94
65738;BMP280;52478;51.844;6.582;2023-03-31T05:19:27;99454.44;;;21.94
65738;BMP280;52478;51.844;6.582;2023-03-31T05:21:54;99448.31;;;21.96
65738;BMP280;52478;51.844;6.582;2023-03-31T05:24:20;99436.59;;;21.97
65738;BMP280;52478;51.844;6.582;2023-03-31T05:26:47;99442.38;;;21.99
65738;BMP280;52478;51.844;6.582;2023-03-31T05:29:16;99441.06;;;22.00
65738;BMP280;52478;51.844;6.582;2023-03-31T05:31:43;99418.03;;;22.00
65738;BMP280;52478;51.844;6.582;2023-03-31T05:34:11;99421.56;;;22.00
65738;BMP280;52478;51.844;6.582;2023-03-31T05:36:37;99416.00;;;22.00
65738;BMP280;52478;51.844;6.582;2023-03-31T05:39:04;99427.13;;;22.00
65738;BMP280;52478;51.844;6.582;2023-03-31T05:41:31;99417.44;;;22.01
65738;BMP280;52478;51.844;6.582;2023-03-31T05:43:57;99409.09;;;22.01
65738;BMP280;52478;51.844;6.582;2023-03-31T05:46:24;99403.53;;;22.01
65738;BMP280;52478;51.844;6.582;2023-03-31T05:48:51;99395.16;;;22.01
65738;BMP280;52478;51.844;6.582;2023-03-31T05:51:19;99396.63;;;22.02
65738;BMP280;52478;51.844;6.582;2023-03-31T05:53:45;99387.56;;;22.02
65738;BMP280;52478;51.844;6.582;2023-03-31T05:56:12;99384.00;;;22.01
65738;BMP280;52478;51.844;6.582;2023-03-31T05:58:38;99386.66;;;21.99
65738;BMP280;52478;51.844;6.582;2023-03-31T06:01:07;99378.44;;;22.01
65738;BMP280;52478;51.844;6.582;2023-03-31T06:03:34;99385.50;;;22.02
65738;BMP280;52478;51.844;6.582;2023-03-31T06:06:01;99370.09;;;22.01
65738;BMP280;52478;51.844;6.582;2023-03-31T06:08:30;99371.56;;;22.02
65738;BMP280;52478;51.844;6.582;2023-03-31T06:10:57;99372.88;;;22.01
65738;BMP280;52478;51.844;6.582;2023-03-31T06:13:23;99368.06;;;22.02
65738;BMP280;52478;51.844;6.582;2023-03-31T06:15:54;99361.72;;;22.01
65738;BMP280;52478;51.844;6.582;2023-03-31T06:18:20;99363.22;;;22.02
65738;BMP280;52478;51.844;6.582;2023-03-31T06:20:47;99361.72;;;22.01
65738;BMP280;52478;51.844;6.582;2023-03-31T06:23:13;99352.06;;;22.02
65738;BMP280;52478;51.844;6.582;2023-03-31T06:25:41;99345.75;;;22.02
65738;BMP280;52478;51.844;6.582;2023-03-31T06:28:08;99349.28;;;22.02
65738;BMP280;52478;51.844;6.582;2023-03-31T06:30:34;99349.13;;;22.00
65738;BMP280;52478;51.844;6.582;2023-03-31T06:33:01;99340.91;;;22.02
65738;BMP280;52478;51.844;6.582;2023-03-31T06:35:27;99345.75;;;22.02
65738;BMP280;52478;51.844;6.582;2023-03-31T06:37:54;99340.91;;;22.02
65738;BMP280;52478;51.844;6.582;2023-03-31T06:40:20;99341.69;;;22.03
65738;BMP280;52478;51.844;6.582;2023-03-31T06:42:48;99333.88;;;22.01
65738;BMP280;52478;51.844;6.582;2023-03-31T06:45:15;99342.44;;;22.03
65738;BMP280;52478;51.844;6.582;2023-03-31T06:47:41;99332.78;;;22.04
65738;BMP280;52478;51.844;6.582;2023-03-31T06:50:09;99332.00;;;22.04
65738;BMP280;52478;51.844;6.582;2023-03-31T06:52:35;99329.22;;;22.04
65738;BMP280;52478;51.844;6.582;2023-03-31T06:55:03;99331.28;;;22.03
65738;BMP280;52478;51.844;6.582;2023-03-31T06:57:30;99321.63;;;22.04
65738;BMP280;52478;51.844;6.582;2023-03-31T06:59:59;99314.38;;;22.01
65738;BMP280;52478;51.844;6.582;2023-03-31T07:02:26;99325.13;;;22.05
65738;BMP280;52478;51.844;6.582;2023-03-31T07:04:52;99320.88;;;22.04
65738;BMP280;52478;51.844;6.582;2023-03-31T07:07:19;99324.41;;;22.04
65738;BMP280;52478;51.844;6.582;2023-03-31T07:09:45;99322.34;;;22.05
65738;BMP280;52478;51.844;6.582;2023-03-31T07:12:12;99317.34;;;22.03
65738;BMP280;52478;51.844;6.582;2023-03-31T07:14:38;99316.78;;;22.05
65738;BMP280;52478;51.844;6.582;2023-03-31T07:17:06;99320.16;;;22.03
65738;BMP280;52478;51.844;6.582;2023-03-31T07:19:32;99313.25;;;22.04
65738;BMP280;52478;51.844;6.582;2023-03-31T07:22:02;99309.72;;;22.04
65738;BMP280;52478;51.844;6.582;2023-03-31T07:24:28;99303.44;;;22.03
65738;BMP280;52478;51.844;6.582;2023-03-31T07:26:55;99303.44;;;22.03
65738;BMP280;52478;51.844;6.582;2023-03-31T07:29:22;99304.16;;;22.04
65738;BMP280;52478;51.844;6.582;2023-03-31T07:31:48;99312.50;;;22.04
65738;BMP280;52478;51.844;6.582;2023-03-31T07:34:16;99318.84;;;22.04
65738;BMP280;52478;51.844;6.582;2023-03-31T07:36:42;99303.44;;;22.03
65738;BMP280;52478;51.844;6.582;2023-03-31T07:39:09;99295.78;;;22.04
65738;BMP280;52478;51.844;6.582;2023-03-31T07:41:35;99283.94;;;22.03
65738;BMP280;52478;51.844;6.582;2023-03-31T07:44:02;99295.06;;;22.03
65738;BMP280;52478;51.844;6.582;2023-03-31T07:46:29;99309.72;;;22.04
65738;BMP280;52478;51.844;6.582;2023-03-31T07:48:56;99302.66;;;22.03
65738;BMP280;52478;51.844;6.582;2023-03-31T07:51:25;99299.88;;;22.03
65738;BMP280;52478;51.844;6.582;2023-03-31T07:53:52;99302.66;;;22.03
65738;BMP280;52478;51.844;6.582;2023-03-31T07:56:19;99300.63;;;22.03
65738;BMP280;52478;51.844;6.582;2023-03-31T07:58:46;99303.44;;;22.03
65738;BMP280;52478;51.844;6.582;2023-03-31T08:01:14;99295.78;;;22.04
65738;BMP280;52478;51.844;6.582;2023-03-31T08:03:42;99282.63;;;22.04
65738;BMP280;52478;51.844;6.582;2023-03-31T08:06:08;99281.84;;;22.04
65738;BMP280;52478;51.844;6.582;2023-03-31T08:08:36;99275.56;;;22.03
65738;BMP280;52478;51.844;6.582;2023-03-31T08:11:07;99270.00;;;22.03
65738;BMP280;52478;51.844;6.582;2023-03-31T08:13:34;99274.25;;;22.04
65738;BMP280;52478;51.844;6.582;2023-03-31T08:16:00;99261.06;;;22.05
65738;BMP280;52478;51.844;6.582;2023-03-31T08:18:27;99254.75;;;22.04
65738;BMP280;52478;51.844;6.582;2023-03-31T08:20:53;99251.97;;;22.04
65738;BMP280;52478;51.844;6.582;2023-03-31T08:23:20;99249.91;;;22.05
65738;BMP280;52478;51.844;6.582;2023-03-31T08:25:47;99255.47;;;22.05
65738;BMP280;52478;51.844;6.582;2023-03-31T08:28:14;99250.63;;;22.05
65738;BMP280;52478;51.844;6.582;2023-03-31T08:30:41;99251.38;;;22.06
65738;BMP280;52478;51.844;6.582;2023-03-31T08:33:08;99253.41;;;22.05
65738;BMP280;52478;51.844;6.582;2023-03-31T08:35:36;99254.75;;;22.04
65738;BMP280;52478;51.844;6.582;2023-03-31T08:38:03;99260.31;;;22.04
65738;BMP280;52478;51.844;6.582;2023-03-31T08:40:31;99257.69;;;22.06
65738;BMP280;52478;51.844;6.582;2023-03-31T08:43:03;99257.69;;;22.06
65738;BMP280;52478;51.844;6.582;2023-03-31T08:45:33;99244.16;;;22.03
65738;BMP280;52478;51.844;6.582;2023-03-31T08:48:03;99254.75;;;22.04
65738;BMP280;52478;51.844;6.582;2023-03-31T08:50:34;99254.91;;;22.06
65738;BMP280;52478;51.844;6.582;2023-03-31T08:53:04;99251.38;;;22.06
65738;BMP280;52478;51.844;6.582;2023-03-31T08:55:43;99255.66;;;22.07
65738;BMP280;52478;51.844;6.582;2023-03-31T08:58:22;99249.34;;;22.06
65738;BMP280;52478;51.844;6.582;2023-03-31T09:00:55;99247.31;;;22.07
65738;BMP280;52478;51.844;6.582;2023-03-31T09:03:26;99252.88;;;22.07
65738;BMP280;52478;51.844;6.582;2023-03-31T09:05:59;99240.97;;;22.06
65738;BMP280;52478;51.844;6.582;2023-03-31T09:08:31;99235.25;;;22.04
65738;BMP280;52478;51.844;6.582;2023-03-31T09:11:05;99232.63;;;22.06
65738;BMP280;52478;51.844;6.582;2023-03-31T09:13:55;99235.41;;;22.06
65738;BMP280;52478;51.844;6.582;2023-03-31T09:16:24;99238.19;;;22.06
65738;BMP280;52478;51.844;6.582;2023-03-31T09:18:52;99229.81;;;22.06
65738;BMP280;52478;51.844;6.582;2023-03-31T09:21:24;99229.81;;;22.06
65738;BMP280;52478;51.844;6.582;2023-03-31T09:23:56;99213.09;;;22.06
65738;BMP280;52478;51.844;6.582;2023-03-31T09:26:26;99211.81;;;22.07
65738;BMP280;52478;51.844;6.582;2023-03-31T09:28:58;99212.56;;;22.08
65738;BMP280;52478;51.844;6.582;2023-03-31T09:31:25;99210.53;;;22.08
65738;BMP280;52478;51.844;6.582;2023-03-31T09:33:56;99195.25;;;22.09
65738;BMP280;52478;51.844;6.582;2023-03-31T09:36:25;99196.75;;;22.10
65738;BMP280;52478;51.844;6.582;2023-03-31T09:38:51;99200.84;;;22.09
65738;BMP280;52478;51.844;6.582;2023-03-31T09:41:18;99189.84;;;22.11
65738;BMP280;52478;51.844;6.582;2023-03-31T09:43:46;99195.44;;;22.11
65738;BMP280;52478;51.844;6.582;2023-03-31T09:46:18;99188.56;;;22.12
65738;BMP280;52478;51.844;6.582;2023-03-31T09:48:52;99186.69;;;22.15
65738;BMP280;52478;51.844;6.582;2023-03-31T09:51:23;99187.41;;;22.15
65738;BMP280;52478;51.844;6.582;2023-03-31T09:53:54;99179.25;;;22.17
65738;BMP280;52478;51.844;6.582;2023-03-31T09:56:43;99182.03;;;22.17
65738;BMP280;52478;51.844;6.582;2023-03-31T09:59:14;99188.88;;;22.16
65738;BMP280;52478;51.844;6.582;2023-03-31T10:01:43;99184.06;;;22.17
65738;BMP280;52478;51.844;6.582;2023-03-31T10:04:17;99184.81;;;22.17
65738;BMP280;52478;51.844;6.582;2023-03-31T10:06:45;99189.63;;;22.17
65738;BMP280;52478;51.844;6.582;2023-03-31T10:09:12;99188.88;;;22.16
65738;BMP280;52478;51.844;6.582;2023-03-31T10:11:39;99200.03;;;22.16
65738;BMP280;52478;51.844;6.582;2023-03-31T10:14:16;99188.19;;;22.16
65738;BMP280;52478;51.844;6.582;2023-03-31T10:16:47;99183.31;;;22.16
65738;BMP280;52478;51.844;6.582;2023-03-31T10:19:20;99187.59;;;22.17
65738;BMP280;52478;51.844;6.582;2023-03-31T10:21:48;99186.28;;;22.18
65738;BMP280;52478;51.844;6.582;2023-03-31T10:24:20;99171.81;;;22.20
65738;BMP280;52478;51.844;6.582;2023-03-31T10:26:47;99167.84;;;22.23
65738;BMP280;52478;51.844;6.582;2023-03-31T10:29:18;99171.72;;;22.27
65738;BMP280;52478;51.844;6.582;2023-03-31T10:31:47;99160.94;;;22.31
65738;BMP280;52478;51.844;6.582;2023-03-31T10:34:15;99159.75;;;22.34
65738;BMP280;52478;51.844;6.582;2023-03-31T10:36:45;99157.88;;;22.36
65738;BMP280;52478;51.844;6.582;2023-03-31T10:39:14;99151.91;;;22.40
65738;BMP280;52478;51.844;6.582;2023-03-31T10:41:41;99154.13;;;22.41
65738;BMP280;52478;51.844;6.582;2023-03-31T10:44:13;99150.75;;;22.43
65738;BMP280;52478;51.844;6.582;2023-03-31T10:47:03;99143.72;;;22.42
65738;BMP280;52478;51.844;6.582;2023-03-31T10:49:37;99147.97;;;22.43
65738;BMP280;52478;51.844;6.582;2023-03-31T10:52:14;99146.66;;;22.44
65738;BMP280;52478;51.844;6.582;2023-03-31T10:54:46;99145.50;;;22.47
65738;BMP280;52478;51.844;6.582;2023-03-31T10:57:13;99145.72;;;22.49
65738;BMP280;52478;51.844;6.582;2023-03-31T10:59:51;99126.91;;;22.49
65738;BMP280;52478;51.844;6.582;2023-03-31T11:02:42;99140.28;;;22.51
65738;BMP280;52478;51.844;6.582;2023-03-31T11:05:16;99129.13;;;22.51
65738;BMP280;52478;51.844;6.582;2023-03-31T11:07:53;99128.38;;;22.50
65738;BMP280;52478;51.844;6.582;2023-03-31T11:10:34;99123.53;;;22.51
65738;BMP280;52478;51.844;6.582;2023-03-31T11:13:07;99133.22;;;22.50
65738;BMP280;52478;51.844;6.582;2023-03-31T11:15:39;99138.78;;;22.50
65738;BMP280;52478;51.844;6.582;2023-03-31T11:18:15;99124.13;;;22.49
65738;BMP280;52478;51.844;6.582;2023-03-31T11:20:50;99138.78;;;22.50
65738;BMP280;52478;51.844;6.582;2023-03-31T11:23:29;99135.84;;;22.48
65738;BMP280;52478;51.844;6.582;2023-03-31T11:25:59;99122.47;;;22.46
65738;BMP280;52478;51.844;6.582;2023-03-31T11:28:35;99128.78;;;22.47
65738;BMP280;52478;51.844;6.582;2023-03-31T11:31:13;99122.47;;;22.46
65738;BMP280;52478;51.844;6.582;2023-03-31T11:33:53;99124.69;;;22.48
65738;BMP280;52478;51.844;6.582;2023-03-31T11:36:33;99124.69;;;22.48
65738;BMP280;52478;51.844;6.582;2023-03-31T11:39:15;99118.38;;;22.47
65738;BMP280;52478;51.844;6.582;2023-03-31T11:41:48;99123.22;;;22.47
65738;BMP280;52478;51.844;6.582;2023-03-31T11:44:17;99115.03;;;22.49
65738;BMP280;52478;51.844;6.582;2023-03-31T11:46:47;99120.63;;;22.49
65738;BMP280;52478;51.844;6.582;2023-03-31T11:49:17;99120.75;;;22.51
65738;BMP280;52478;51.844;6.582;2023-03-31T11:51:48;99111.63;;;22.50
65738;BMP280;52478;51.844;6.582;2023-03-31T11:54:19;99113.88;;;22.52
65738;BMP280;52478;51.844;6.582;2023-03-31T11:56:46;99100.69;;;22.52
65738;BMP280;52478;51.844;6.582;2023-03-31T11:59:14;99105.66;;;22.54
65738;BMP280;52478;51.844;6.582;2023-03-31T12:01:44;99109.03;;;22.52
65738;BMP280;52478;51.844;6.582;2023-03-31T12:04:22;99107.56;;;22.51
65738;BMP280;52478;51.844;6.582;2023-03-31T12:06:51;99113.88;;;22.52
65738;BMP280;52478;51.844;6.582;2023-03-31T12:09:25;99108.28;;;22.52
65738;BMP280;52478;51.844;6.582;2023-03-31T12:11:56;99097.13;;;22.52
65738;BMP280;52478;51.844;6.582;2023-03-31T12:14:30;99097.31;;;22.54
65738;BMP280;52478;51.844;6.582;2023-03-31T12:17:01;99099.34;;;22.53
65738;BMP280;52478;51.844;6.582;2023-03-31T12:19:35;99101.56;;;22.55
65738;BMP280;52478;51.844;6.582;2023-03-31T12:22:10;99091.16;;;22.55
65738;BMP280;52478;51.844;6.582;2023-03-31T12:24:38;99091.16;;;22.55
65738;BMP280;52478;51.844;6.582;2023-03-31T12:27:11;99087.06;;;22.56
65738;BMP280;52478;51.844;6.582;2023-03-31T12:29:42;99090.41;;;22.55
65738;BMP280;52478;51.844;6.582;2023-03-31T12:32:13;99083.38;;;22.54
65738;BMP280;52478;51.844;6.582;2023-03-31T12:34:44;99077.78;;;22.54
65738;BMP280;52478;51.844;6.582;2023-03-31T12:37:28;99080.56;;;22.54
65738;BMP280;52478;51.844;6.582;2023-03-31T12:40:09;99079.53;;;22.49
65738;BMP280;52478;51.844;6.582;2023-03-31T12:43:03;99070.44;;;22.49
65738;BMP280;52478;51.844;6.582;2023-03-31T12:45:35;99071.88;;;22.50
65738;BMP280;52478;51.844;6.582;2023-03-31T12:48:19;99068.19;;;22.47
65738;BMP280;52478;51.844;6.582;2023-03-31T12:51:00;99074.50;;;22.48
65738;BMP280;52478;51.844;6.582;2023-03-31T12:53:38;99059.66;;;22.45
65738;BMP280;52478;51.844;6.582;2023-03-31T12:56:07;99065.97;;;22.46
65738;BMP280;52478;51.844;6.582;2023-03-31T12:58:44;99058.94;;;22.45
65738;BMP280;52478;51.844;6.582;2023-03-31T13:01:13;99057.59;;;22.46
65738;BMP280;52478;51.844;6.582;2023-03-31T13:03:51;99049.25;;;22.46
65738;BMP280;52478;51.844;6.582;2023-03-31T13:09:40;99043.84;;;22.48
65738;BMP280;52478;51.844;6.582;2023-03-31T13:12:11;99050.91;;;22.49
65738;BMP280;52478;51.844;6.582;2023-03-31T13:14:39;99041.81;;;22.48
65738;BMP280;52478;51.844;6.582;2023-03-31T13:17:13;99042.22;;;22.45
65738;BMP280;52478;51.844;6.582;2023-03-31T13:19:46;99029.91;;;22.48
65738;BMP280;52478;51.844;6.582;2023-03-31T13:22:32;99036.78;;;22.47
65738;BMP280;52478;51.844;6.582;2023-03-31T13:27:49;99034.00;;;22.47
65738;BMP280;52478;51.844;6.582;2023-03-31T13:30:44;99027.28;;;22.50
65738;BMP280;52478;51.844;6.582;2023-03-31T13:33:13;99033.56;;;22.50
65738;BMP280;52478;51.844;6.582;2023-03-31T13:35:43;99030.06;;;22.50
65738;BMP280;52478;51.844;6.582;2023-03-31T13:38:19;99030.97;;;22.52
65738;BMP280;52478;51.844;6.582;2023-03-31T13:40:55;99030.97;;;22.52
65738;BMP280;52478;51.844;6.582;2023-03-31T13:44:03;99032.44;;;22.53
65738;BMP280;52478;51.844;6.582;2023-03-31T13:46:42;99029.09;;;22.55
65738;BMP280;52478;51.844;6.582;2023-03-31T13:49:28;99026.28;;;22.55
65738;BMP280;52478;51.844;6.582;2023-03-31T13:52:02;99025.53;;;22.54
65738;BMP280;52478;51.844;6.582;2023-03-31T13:57:56;99013.66;;;22.54
65738;BMP280;52478;51.844;6.582;2023-03-31T14:00:41;98998.97;;;22.53
65738;BMP280;52478;51.844;6.582;2023-03-31T14:03:21;98991.19;;;22.52
65738;BMP280;52478;51.844;6.582;2023-03-31T14:05:53;98989.72;;;22.51
65738;BMP280;52478;51.844;6.582;2023-03-31T14:08:31;98991.19;;;22.52
65738;BMP280;52478;51.844;6.582;2023-03-31T14:11:15;98998.06;;;22.51
65738;BMP280;52478;51.844;6.582;2023-03-31T14:13:42;98986.19;;;22.50
65738;BMP280;52478;51.844;6.582;2023-03-31T14:16:11;98996.44;;;22.48
65738;BMP280;52478;51.844;6.582;2023-03-31T14:18:43;98995.88;;;22.49
65738;BMP280;52478;51.844;6.582;2023-03-31T14:21:19;98995.16;;;22.49
65738;BMP280;52478;51.844;6.582;2023-03-31T14:23:56;99017.25;;;22.47
65738;BMP280;52478;51.844;6.582;2023-03-31T14:26:43;99000.53;;;22.47
65738;BMP280;52478;51.844;6.582;2023-03-31T14:29:17;99006.31;;;22.49
65738;BMP280;52478;51.844;6.582;2023-03-31T14:31:54;99009.09;;;22.49
65738;BMP280;52478;51.844;6.582;2023-03-31T14:34:33;98992.19;;;22.47
65738;BMP280;52478;51.844;6.582;2023-03-31T14:37:04;98992.19;;;22.47
65738;BMP280;52478;51.844;6.582;2023-03-31T14:39:35;98990.88;;;22.48
65738;BMP280;52478;51.844;6.582;2023-03-31T14:42:03;98987.34;;;22.47
65738;BMP280;52478;51.844;6.582;2023-03-31T14:44:32;98981.03;;;22.47
65738;BMP280;52478;51.844;6.582;2023-03-31T14:47:00;98985.72;;;22.44